createdAt,value
2017-11-10T00:03:40.599Z,29.70
2017-11-10T00:08:45.013Z,24.63
2017-11-10T00:13:47.929Z,23.47
2017-11-10T00:18:50.888Z,20.57
2017-11-10T00:23:57.031Z,25.20
2017-11-10T00:28:59.958Z,24.10
2017-11-10T00:39:10.215Z,24.80
2017-11-10T00:49:23.077Z,24.80
2017-11-10T00:54:26.417Z,24.73
2017-11-10T00:59:31.459Z,27.07
2017-11-10T01:04:35.756Z,24.23
2017-11-10T01:09:38.785Z,28.60
2017-11-10T01:14:42.041Z,36.00
2017-11-10T01:19:46.302Z,31.57
2017-11-10T01:29:56.138Z,30.80
2017-11-10T01:34:59.605Z,31.87
2017-11-10T01:40:03.996Z,30.33
2017-11-10T01:45:08.301Z,37.03
2017-11-10T01:50:12.526Z,33.10
2017-11-10T01:55:15.349Z,31.37
2017-11-10T02:00:19.896Z,33.43
2017-11-10T02:05:23.244Z,28.10
2017-11-10T02:10:29.293Z,26.03
2017-11-10T02:15:32.703Z,29.63
2017-11-10T02:20:37.810Z,32.03
2017-11-10T02:25:41.261Z,31.93
2017-11-10T02:30:44.653Z,28.40
2017-11-10T02:35:47.590Z,30.00
2017-11-10T02:40:50.388Z,28.90
2017-11-10T02:45:54.758Z,30.83
2017-11-10T02:50:59.106Z,31.07
2017-11-10T02:56:04.234Z,25.17
2017-11-10T03:01:08.516Z,24.83
2017-11-10T03:06:11.333Z,21.57
2017-11-10T03:11:14.380Z,33.70
2017-11-10T03:21:24.714Z,27.40
2017-11-10T03:26:28.212Z,29.07
2017-11-10T03:31:32.355Z,34.23
2017-11-10T03:36:39.481Z,34.53
2017-11-10T03:41:45.589Z,28.93
2017-11-10T03:51:56.398Z,29.80
2017-11-10T03:56:59.796Z,26.13
2017-11-10T04:02:03.255Z,30.80
2017-11-10T04:07:07.614Z,29.93
2017-11-10T04:12:10.607Z,27.90
2017-11-10T04:17:16.634Z,38.40
2017-11-10T04:22:22.621Z,33.90
2017-11-10T04:27:25.977Z,27.50
2017-11-10T04:32:29.025Z,28.40
2017-11-10T04:37:34.135Z,27.13
2017-11-10T04:42:37.624Z,28.10
2017-11-10T04:47:41.965Z,25.53
2017-11-10T04:52:46.509Z,24.37
2017-11-10T04:57:50.930Z,24.30
2017-11-10T05:08:01.291Z,29.97
2017-11-10T05:13:04.834Z,22.27
2017-11-10T05:18:07.443Z,26.10
2017-11-10T05:23:10.031Z,25.07
2017-11-10T05:28:12.603Z,21.70
2017-11-10T05:33:15.160Z,18.60
2017-11-10T05:38:17.766Z,21.33
2017-11-10T05:43:20.347Z,20.30
2017-11-10T05:48:22.940Z,19.10
2017-11-10T05:53:25.514Z,21.27
2017-11-10T05:58:28.088Z,23.67
2017-11-10T06:03:31.478Z,22.00
2017-11-10T06:08:34.030Z,19.10
2017-11-10T06:13:36.596Z,23.07
2017-11-10T06:18:39.148Z,17.83
2017-11-10T06:23:41.717Z,19.73
2017-11-10T06:28:45.021Z,20.87
2017-11-10T06:39:16.552Z,25.40
2017-11-10T06:44:19.132Z,20.40
2017-11-10T06:49:22.444Z,17.20
2017-11-10T06:54:25.772Z,19.27
2017-11-10T06:59:28.387Z,20.60
2017-11-10T07:04:30.947Z,24.33
2017-11-10T07:09:33.498Z,22.60
2017-11-10T07:14:36.071Z,18.90
2017-11-10T07:19:39.390Z,20.07
2017-11-10T07:24:41.952Z,21.27
2017-11-10T07:29:44.526Z,23.80
2017-11-10T07:34:47.089Z,23.83
2017-11-10T07:39:49.647Z,24.33
2017-11-10T07:44:52.198Z,26.53
2017-11-10T07:49:54.756Z,28.13
2017-11-10T07:54:57.323Z,29.27
2017-11-10T07:59:59.890Z,21.80
2017-11-10T08:05:02.433Z,22.43
2017-11-10T08:10:05.007Z,20.67
2017-11-10T08:15:07.571Z,23.97
2017-11-10T08:20:10.132Z,25.70
2017-11-10T08:25:12.689Z,19.77
2017-11-10T08:30:15.253Z,26.50
2017-11-10T08:35:17.821Z,21.53
2017-11-10T08:40:20.385Z,25.80
2017-11-10T08:45:23.721Z,24.80
2017-11-10T08:50:26.352Z,25.27
2017-11-10T08:55:28.956Z,27.87
2017-11-10T09:00:31.521Z,21.97
2017-11-10T09:05:34.103Z,21.57
2017-11-10T09:10:37.439Z,21.50
2017-11-10T09:15:40.012Z,22.00
2017-11-10T09:20:43.339Z,21.33
2017-11-10T09:25:46.681Z,20.20
2017-11-10T09:31:01.067Z,22.73
2017-11-10T09:41:40.601Z,25.47
2017-11-10T09:46:49.508Z,17.97
2017-11-10T09:52:08.901Z,21.60
2017-11-10T09:57:16.109Z,20.00
2017-11-10T10:02:37.517Z,20.50
2017-11-10T10:07:45.564Z,20.23
2017-11-10T10:12:53.712Z,18.83
2017-11-10T10:17:58.083Z,20.97
2017-11-10T10:23:00.651Z,18.47
2017-11-10T10:28:04.647Z,20.07
2017-11-10T10:33:07.220Z,17.67
2017-11-10T10:38:09.774Z,18.07
2017-11-10T10:43:12.351Z,17.07
2017-11-10T10:48:14.906Z,19.83
2017-11-10T10:53:17.471Z,20.97
2017-11-10T10:58:20.028Z,17.17
2017-11-10T11:03:22.684Z,22.73
2017-11-10T11:08:26.017Z,18.00
2017-11-10T11:13:28.564Z,18.03
2017-11-10T11:18:31.163Z,17.17
2017-11-10T11:23:33.736Z,19.20
2017-11-10T11:28:36.324Z,14.60
2017-11-10T11:33:38.908Z,17.17
2017-11-10T11:38:42.258Z,16.33
2017-11-10T11:43:44.889Z,20.17
2017-11-10T11:48:47.456Z,17.00
2017-11-10T11:53:50.042Z,17.67
2017-11-10T11:58:52.604Z,19.60
2017-11-10T12:03:55.194Z,17.00
2017-11-10T12:08:57.758Z,19.33
2017-11-10T12:14:00.325Z,19.10
2017-11-10T12:19:03.691Z,18.73
2017-11-10T12:24:06.266Z,16.00
2017-11-10T12:29:08.831Z,16.63
2017-11-10T12:34:11.394Z,17.50
2017-11-10T12:39:13.980Z,17.77
2017-11-10T12:44:16.540Z,21.87
2017-11-10T12:49:19.106Z,19.17
2017-11-10T12:54:22.483Z,13.87
2017-11-10T12:59:25.365Z,17.40
2017-11-10T13:04:27.912Z,16.40
2017-11-10T13:09:30.703Z,17.10
2017-11-10T13:14:33.266Z,16.77
2017-11-10T13:19:35.842Z,18.50
2017-11-10T13:24:38.413Z,13.90
2017-11-10T13:29:40.965Z,16.23
2017-11-10T13:34:44.298Z,19.40
2017-11-10T13:39:46.861Z,15.80
2017-11-10T13:44:49.437Z,16.40
2017-11-10T13:49:52.009Z,20.47
2017-11-10T13:54:54.581Z,16.93
2017-11-10T13:59:57.157Z,16.10
2017-11-10T14:04:59.723Z,20.97
2017-11-10T14:10:02.292Z,14.47
2017-11-10T14:15:05.626Z,12.70
2017-11-10T14:20:08.184Z,12.30
2017-11-10T14:25:10.769Z,15.33
2017-11-10T14:30:13.315Z,13.13
2017-11-10T14:35:15.880Z,11.43
2017-11-10T14:40:18.452Z,15.10
2017-11-10T14:45:21.016Z,19.90
2017-11-10T14:50:24.347Z,15.63
2017-11-10T14:55:26.920Z,20.50
2017-11-10T15:00:30.249Z,14.73
2017-11-10T15:05:32.858Z,16.20
2017-11-10T15:10:35.567Z,19.67
2017-11-10T15:15:38.163Z,18.87
2017-11-10T15:20:40.724Z,17.30
2017-11-10T15:25:43.286Z,21.27
2017-11-10T15:30:45.847Z,16.37
2017-11-10T15:35:48.414Z,19.03
2017-11-10T15:40:51.223Z,18.20
2017-11-10T15:45:54.570Z,19.27
2017-11-10T15:50:57.899Z,20.00
2017-11-10T15:56:00.475Z,20.30
2017-11-10T16:01:03.026Z,19.73
2017-11-10T16:06:05.593Z,16.67
2017-11-10T16:11:08.171Z,20.63
2017-11-10T16:16:10.725Z,18.67
2017-11-10T16:26:17.611Z,23.40
2017-11-10T16:31:20.188Z,17.33
2017-11-10T16:36:22.772Z,24.27
2017-11-10T16:41:25.340Z,20.83
2017-11-10T16:46:27.936Z,27.53
2017-11-10T16:51:30.511Z,22.83
2017-11-10T16:56:33.071Z,22.30
2017-11-10T17:01:35.637Z,26.67
2017-11-10T17:06:38.216Z,20.03
2017-11-10T17:11:41.547Z,23.47
2017-11-10T17:16:44.106Z,19.87
2017-11-10T17:21:46.674Z,22.33
2017-11-10T17:26:49.251Z,20.57
2017-11-10T17:31:51.813Z,23.87
2017-11-10T17:36:54.378Z,18.87
2017-11-10T17:41:56.945Z,18.70
2017-11-10T17:47:01.064Z,21.93
2017-11-10T17:52:03.632Z,27.23
2017-11-10T17:57:06.202Z,13.83
2017-11-10T18:02:08.834Z,17.23
2017-11-10T18:07:11.423Z,16.70
2017-11-10T18:12:14.016Z,16.33
2017-11-10T18:17:16.609Z,28.40
2017-11-10T18:22:19.163Z,16.10
2017-11-10T18:27:21.700Z,13.80
2017-11-10T18:32:24.292Z,14.90
2017-11-10T18:37:27.293Z,12.50
2017-11-10T18:42:29.862Z,12.70
2017-11-10T18:47:32.526Z,10.97
2017-11-10T18:52:35.163Z,9.07
2017-11-10T18:57:37.781Z,13.00
2017-11-10T19:02:40.352Z,11.00
2017-11-10T19:07:43.800Z,10.67
2017-11-10T19:12:46.369Z,12.70
2017-11-10T19:22:55.985Z,11.97
2017-11-10T19:27:58.573Z,10.60
2017-11-10T19:33:01.134Z,12.47
2017-11-10T19:38:03.738Z,14.90
2017-11-10T19:43:06.337Z,12.10
2017-11-10T19:48:08.886Z,13.73
2017-11-10T19:53:11.497Z,11.97
2017-11-10T19:58:14.140Z,13.47
2017-11-10T20:03:16.728Z,14.23
2017-11-10T20:08:19.303Z,15.93
2017-11-10T20:13:21.899Z,14.53
2017-11-10T20:18:24.565Z,15.67
2017-11-10T20:23:27.630Z,13.97
2017-11-10T20:28:30.989Z,12.63
2017-11-10T20:33:33.620Z,14.47
2017-11-10T20:38:36.178Z,13.33
2017-11-10T20:43:38.735Z,15.67
2017-11-10T20:48:41.300Z,12.90
2017-11-10T20:53:44.008Z,10.97
2017-11-10T20:58:46.591Z,14.43
2017-11-10T21:03:49.178Z,19.47
2017-11-10T21:08:51.784Z,14.03
2017-11-10T21:13:54.405Z,18.43
2017-11-10T21:18:57.003Z,15.60
2017-11-10T21:23:59.559Z,16.57
2017-11-10T21:29:02.117Z,12.50
2017-11-10T21:34:04.687Z,17.77
2017-11-10T21:39:07.253Z,11.97
2017-11-10T21:44:09.818Z,20.13
2017-11-10T21:49:12.390Z,11.20
2017-11-10T21:54:14.932Z,15.97
2017-11-10T21:59:17.517Z,15.00
2017-11-10T22:04:20.072Z,12.20
2017-11-10T22:09:23.357Z,11.93
2017-11-10T22:14:25.933Z,13.40
2017-11-10T22:19:28.491Z,12.43
2017-11-10T22:24:31.021Z,13.60
2017-11-10T22:29:34.007Z,10.60
2017-11-10T22:34:36.566Z,12.60
2017-11-10T22:39:39.148Z,10.83
2017-11-10T22:44:41.745Z,9.77
2017-11-10T22:49:44.303Z,12.63
2017-11-10T22:54:46.889Z,11.57
2017-11-10T22:59:49.682Z,9.10
2017-11-10T23:04:52.302Z,10.30
2017-11-10T23:09:54.859Z,14.13
2017-11-10T23:14:57.417Z,10.40
2017-11-10T23:20:00.002Z,6.27
2017-11-10T23:25:02.579Z,7.87
2017-11-10T23:30:05.142Z,7.37
2017-11-10T23:35:07.700Z,5.37
2017-11-10T23:40:10.237Z,10.33
2017-11-10T23:45:12.804Z,6.10
2017-11-10T23:50:15.409Z,7.03
2017-11-10T23:55:17.986Z,6.50
